createdAt,value
2019-02-05T00:00:52.399Z,68.28
2019-02-05T00:03:24.065Z,67.71
2019-02-05T00:05:55.718Z,67.24
2019-02-05T00:08:27.280Z,67.33
2019-02-05T00:10:59.149Z,66.85
2019-02-05T00:13:30.828Z,66.85
2019-02-05T00:16:02.499Z,67.32
2019-02-05T00:18:34.079Z,67.01
2019-02-05T00:21:05.653Z,66.96
2019-02-05T00:23:37.522Z,67.16
2019-02-05T00:26:09.105Z,66.69
2019-02-05T00:28:40.733Z,66.34
2019-02-05T00:31:12.368Z,66.43
2019-02-05T00:33:43.940Z,66.22
2019-02-05T00:36:15.805Z,66.39
2019-02-05T00:38:47.350Z,65.95
2019-02-05T00:41:18.927Z,65.71
2019-02-05T00:43:50.508Z,65.81
2019-02-05T00:46:22.096Z,66.03
2019-02-05T00:48:53.948Z,66.17
2019-02-05T00:51:25.526Z,66.69
2019-02-05T00:53:57.110Z,67.02
2019-02-05T00:56:28.682Z,67.05
2019-02-05T00:59:00.710Z,67.49
2019-02-05T01:01:33.084Z,67.84
2019-02-05T01:04:04.666Z,67.56
2019-02-05T01:06:36.222Z,67.46
2019-02-05T01:09:08.480Z,67.20
2019-02-05T01:11:40.112Z,67.08
2019-02-05T01:14:11.820Z,67.44
2019-02-05T01:16:43.432Z,67.51
2019-02-05T01:19:15.089Z,67.41
2019-02-05T01:21:46.647Z,66.98
2019-02-05T01:24:18.261Z,67.45
2019-02-05T01:26:49.826Z,67.72
2019-02-05T01:29:21.449Z,67.48
2019-02-05T01:31:53.036Z,67.31
2019-02-05T01:34:24.734Z,67.20
2019-02-05T01:36:56.378Z,67.07
2019-02-05T01:39:27.952Z,67.17
2019-02-05T01:41:59.607Z,66.63
2019-02-05T01:44:31.168Z,66.24
2019-02-05T01:47:02.738Z,65.99
2019-02-05T01:49:34.321Z,66.26
2019-02-05T01:52:05.904Z,65.97
2019-02-05T01:54:37.459Z,66.08
2019-02-05T01:57:09.040Z,66.26
2019-02-05T01:59:40.633Z,66.56
2019-02-05T02:02:12.205Z,66.86
2019-02-05T02:04:44.951Z,66.50
2019-02-05T02:07:16.502Z,66.46
2019-02-05T02:09:48.125Z,66.36
2019-02-05T02:12:19.694Z,66.73
2019-02-05T02:14:51.323Z,66.65
2019-02-05T02:17:22.890Z,67.33
2019-02-05T02:19:54.541Z,67.14
2019-02-05T02:22:26.119Z,66.75
2019-02-05T02:24:57.704Z,66.67
2019-02-05T02:27:29.279Z,66.93
2019-02-05T02:30:00.875Z,66.99
2019-02-05T02:32:32.516Z,67.01
2019-02-05T02:35:04.740Z,67.36
2019-02-05T02:37:36.305Z,67.58
2019-02-05T02:40:10.467Z,67.06
2019-02-05T02:42:42.110Z,67.50
2019-02-05T02:45:15.698Z,67.08
2019-02-05T02:47:47.272Z,67.16
2019-02-05T02:50:22.814Z,66.67
2019-02-05T02:52:54.547Z,66.07
2019-02-05T02:55:26.122Z,66.88
2019-02-05T02:57:57.701Z,67.33
2019-02-05T03:00:29.357Z,66.49
2019-02-05T03:03:00.937Z,65.91
2019-02-05T03:05:33.012Z,65.39
2019-02-05T03:08:04.625Z,65.49
2019-02-05T03:10:36.184Z,65.51
2019-02-05T03:13:07.835Z,65.40
2019-02-05T03:15:39.517Z,65.87
2019-02-05T03:18:11.236Z,66.01
2019-02-05T03:20:42.797Z,66.11
2019-02-05T03:23:14.452Z,66.78
2019-02-05T03:25:46.032Z,66.59
2019-02-05T03:28:18.543Z,66.99
2019-02-05T03:30:50.133Z,66.37
2019-02-05T03:33:23.392Z,66.25
2019-02-05T03:35:54.961Z,66.15
2019-02-05T03:38:26.520Z,66.86
2019-02-05T03:41:25.659Z,66.86
2019-02-05T03:43:57.329Z,66.89
2019-02-05T03:46:29.442Z,66.84
2019-02-05T03:49:01.277Z,66.90
2019-02-05T03:51:40.853Z,66.72
2019-02-05T03:54:20.589Z,66.38
2019-02-05T03:57:03.916Z,66.15
2019-02-05T03:59:58.342Z,66.33
2019-02-05T04:02:49.979Z,66.35
2019-02-05T04:05:58.319Z,66.66
2019-02-05T04:08:56.200Z,66.37
2019-02-05T04:11:56.300Z,65.79
2019-02-05T04:14:54.131Z,65.97
2019-02-05T04:17:33.602Z,65.48
2019-02-05T04:20:54.980Z,65.58
2019-02-05T04:23:46.672Z,65.74
2019-02-05T04:26:34.881Z,66.92
2019-02-05T04:29:38.416Z,67.16
2019-02-05T04:32:15.251Z,67.24
2019-02-05T04:35:16.352Z,66.61
2019-02-05T04:38:11.316Z,66.57
2019-02-05T04:41:19.947Z,66.51
2019-02-05T04:44:05.302Z,66.53
2019-02-05T04:47:05.412Z,66.84
2019-02-05T04:49:47.721Z,66.64
2019-02-05T04:52:39.352Z,66.17
2019-02-05T04:55:41.316Z,66.68
2019-02-05T04:58:23.563Z,66.72
2019-02-05T05:01:12.232Z,66.49
2019-02-05T05:04:08.569Z,67.07
2019-02-05T05:06:48.485Z,67.00
2019-02-05T05:09:42.499Z,66.72
2019-02-05T05:12:14.266Z,66.61
2019-02-05T05:14:46.359Z,66.38
2019-02-05T05:17:17.998Z,66.85
2019-02-05T05:19:49.650Z,67.10
2019-02-05T05:22:21.324Z,66.87
2019-02-05T05:24:53.119Z,66.32
2019-02-05T05:27:25.525Z,66.06
2019-02-05T05:29:57.606Z,66.65
2019-02-05T05:32:29.235Z,66.27
2019-02-05T05:35:00.973Z,66.04
2019-02-05T05:37:32.569Z,65.69
2019-02-05T05:40:05.565Z,65.34
2019-02-05T05:42:37.182Z,65.01
2019-02-05T05:45:12.781Z,64.98
2019-02-05T05:47:45.023Z,64.87
2019-02-05T05:50:17.041Z,65.07
2019-02-05T05:52:48.643Z,65.09
2019-02-05T05:55:20.219Z,64.76
2019-02-05T05:57:51.825Z,64.59
2019-02-05T06:00:23.456Z,64.53
2019-02-05T06:02:55.149Z,64.77
2019-02-05T06:05:26.865Z,64.74
2019-02-05T06:07:58.602Z,64.78
2019-02-05T06:10:30.360Z,65.04
2019-02-05T06:13:02.009Z,65.24
2019-02-05T06:15:35.864Z,64.99
2019-02-05T06:18:06.966Z,64.86
2019-02-05T06:20:40.011Z,64.85
2019-02-05T06:23:11.733Z,65.17
2019-02-05T06:25:43.360Z,65.16
2019-02-05T06:28:15.026Z,65.93
2019-02-05T06:30:46.705Z,66.17
2019-02-05T06:33:18.757Z,65.92
2019-02-05T06:35:50.337Z,65.64
2019-02-05T06:38:22.035Z,65.52
2019-02-05T06:40:53.694Z,65.13
2019-02-05T06:43:25.401Z,65.01
2019-02-05T06:45:57.328Z,64.84
2019-02-05T06:48:29.008Z,64.58
2019-02-05T06:51:00.680Z,65.49
2019-02-05T06:53:32.277Z,64.79
2019-02-05T06:56:03.967Z,64.18
2019-02-05T06:58:46.040Z,64.49
2019-02-05T07:01:08.972Z,64.18
2019-02-05T07:03:40.569Z,64.06
2019-02-05T07:06:12.161Z,64.36
2019-02-05T07:08:43.764Z,64.78
2019-02-05T07:11:15.411Z,64.66
2019-02-05T07:13:47.208Z,64.83
2019-02-05T07:16:18.824Z,64.68
2019-02-05T07:18:50.606Z,64.02
2019-02-05T07:21:22.257Z,64.23
2019-02-05T07:23:54.002Z,64.18
2019-02-05T07:26:25.786Z,63.61
2019-02-05T07:29:01.516Z,63.30
2019-02-05T07:31:31.269Z,63.20
2019-02-05T07:34:02.887Z,63.23
2019-02-05T07:36:34.536Z,62.82
2019-02-05T07:39:08.739Z,62.16
2019-02-05T07:41:40.325Z,62.04
2019-02-05T07:44:11.936Z,62.50
2019-02-05T07:46:43.680Z,61.78
2019-02-05T07:49:15.440Z,61.04
2019-02-05T07:51:47.134Z,60.94
2019-02-05T07:54:19.015Z,60.38
2019-02-05T07:56:50.663Z,60.23
2019-02-05T07:59:22.447Z,59.24
2019-02-05T08:01:54.130Z,59.16
2019-02-05T08:04:25.735Z,58.90
2019-02-05T08:06:57.880Z,58.92
2019-02-05T08:09:30.355Z,59.09
2019-02-05T08:12:02.242Z,58.78
2019-02-05T08:14:33.963Z,59.31
2019-02-05T08:17:05.683Z,59.20
2019-02-05T08:19:37.449Z,58.31
2019-02-05T08:22:09.695Z,58.24
2019-02-05T08:24:41.466Z,58.37
2019-02-05T08:27:13.066Z,58.75
2019-02-05T08:29:44.725Z,58.54
2019-02-05T08:32:16.401Z,58.31
2019-02-05T08:34:47.999Z,57.19
2019-02-05T08:37:20.877Z,56.69
2019-02-05T08:39:52.671Z,56.62
2019-02-05T08:42:24.512Z,55.75
2019-02-05T08:44:56.329Z,56.80
2019-02-05T08:47:28.001Z,56.44
2019-02-05T08:49:59.584Z,56.35
2019-02-05T08:52:31.859Z,56.63
2019-02-05T08:55:03.546Z,56.37
2019-02-05T08:57:35.675Z,56.24
2019-02-05T09:00:26.765Z,55.70
2019-02-05T09:02:58.512Z,55.95
2019-02-05T09:05:30.173Z,56.05
2019-02-05T09:08:02.265Z,56.04
2019-02-05T09:10:40.042Z,56.24
2019-02-05T09:13:12.118Z,55.91
2019-02-05T09:15:43.894Z,55.70
2019-02-05T09:18:15.501Z,55.23
2019-02-05T09:20:47.221Z,55.06
2019-02-05T09:23:19.003Z,54.79
2019-02-05T09:25:50.582Z,54.70
2019-02-05T09:28:22.295Z,54.47
2019-02-05T09:30:53.868Z,53.87
2019-02-05T09:33:25.462Z,53.05
2019-02-05T09:35:57.202Z,52.69
2019-02-05T09:38:28.972Z,52.96
2019-02-05T09:41:00.863Z,52.30
2019-02-05T09:43:32.524Z,52.73
2019-02-05T09:46:04.221Z,52.86
2019-02-05T09:48:35.884Z,52.95
2019-02-05T09:51:07.556Z,52.31
2019-02-05T09:53:39.377Z,52.52
2019-02-05T09:56:11.035Z,52.50
2019-02-05T09:58:42.694Z,52.18
2019-02-05T10:01:14.288Z,52.06
2019-02-05T10:03:47.022Z,51.97
2019-02-05T10:06:18.665Z,52.19
2019-02-05T10:08:50.805Z,52.01
2019-02-05T10:11:22.409Z,52.11
2019-02-05T10:13:54.008Z,51.35
2019-02-05T10:16:25.621Z,51.68
2019-02-05T10:18:57.261Z,52.21
2019-02-05T10:21:29.026Z,51.27
2019-02-05T10:24:01.011Z,52.00
2019-02-05T10:26:32.887Z,51.15
2019-02-05T10:29:04.594Z,51.92
2019-02-05T10:31:36.176Z,52.57
2019-02-05T10:34:07.836Z,51.80
2019-02-05T10:36:39.452Z,52.55
2019-02-05T10:39:13.412Z,52.84
2019-02-05T10:41:45.072Z,53.08
2019-02-05T10:44:16.677Z,52.84
2019-02-05T10:46:48.376Z,53.31
2019-02-05T10:49:20.254Z,52.92
2019-02-05T10:51:51.926Z,53.26
2019-02-05T10:54:23.531Z,52.56
2019-02-05T10:56:55.114Z,53.31
2019-02-05T10:59:26.805Z,53.71
2019-02-05T11:01:58.945Z,53.27
2019-02-05T11:04:30.523Z,52.53
2019-02-05T11:07:02.132Z,52.31
2019-02-05T11:09:33.712Z,53.65
2019-02-05T11:12:05.669Z,53.07
2019-02-05T11:14:37.324Z,52.93
2019-02-05T11:17:08.972Z,53.49
2019-02-05T11:19:40.631Z,53.46
2019-02-05T11:22:12.320Z,53.49
2019-02-05T11:24:43.912Z,53.89
2019-02-05T11:27:15.511Z,55.08
2019-02-05T11:29:47.729Z,54.97
2019-02-05T11:32:20.223Z,54.12
2019-02-05T11:34:51.880Z,54.33
2019-02-05T11:37:23.471Z,54.37
2019-02-05T11:39:55.062Z,54.83
2019-02-05T11:42:27.166Z,54.59
2019-02-05T11:44:58.862Z,54.17
2019-02-05T11:47:30.493Z,53.78
2019-02-05T11:50:02.129Z,53.99
2019-02-05T11:52:33.866Z,54.74
2019-02-05T11:55:09.689Z,55.98
2019-02-05T11:57:41.421Z,55.21
2019-02-05T12:00:32.141Z,56.73
2019-02-05T12:02:56.804Z,56.92
2019-02-05T12:05:28.639Z,56.84
2019-02-05T12:08:00.682Z,56.79
2019-02-05T12:10:32.340Z,56.52
2019-02-05T12:13:03.928Z,57.55
2019-02-05T12:15:35.514Z,57.64
2019-02-05T12:18:08.054Z,58.44
2019-02-05T12:20:39.754Z,57.59
2019-02-05T12:23:11.392Z,57.65
2019-02-05T12:25:43.706Z,57.53
2019-02-05T12:28:15.359Z,57.95
2019-02-05T12:30:47.328Z,58.30
2019-02-05T12:33:18.978Z,59.13
2019-02-05T12:35:50.859Z,59.16
2019-02-05T12:38:22.558Z,59.94
2019-02-05T12:40:54.220Z,60.31
2019-02-05T12:43:25.901Z,60.09
2019-02-05T12:45:57.495Z,60.20
2019-02-05T12:48:29.479Z,59.88
2019-02-05T12:51:01.089Z,59.72
2019-02-05T12:53:32.691Z,59.98
2019-02-05T12:56:04.295Z,59.90
2019-02-05T12:58:35.938Z,59.31
2019-02-05T13:01:07.515Z,58.65
2019-02-05T13:03:39.312Z,59.32
2019-02-05T13:06:10.973Z,60.20
2019-02-05T13:08:42.658Z,59.64
2019-02-05T13:11:14.250Z,59.01
2019-02-05T13:13:45.917Z,58.95
2019-02-05T13:16:17.619Z,59.67
2019-02-05T13:18:51.930Z,59.60
2019-02-05T13:21:22.497Z,59.79
2019-02-05T13:23:54.247Z,59.72
2019-02-05T13:26:26.250Z,60.25
2019-02-05T13:28:57.993Z,60.09
2019-02-05T13:31:29.674Z,60.44
2019-02-05T13:34:01.345Z,61.66
2019-02-05T13:36:33.005Z,61.72
2019-02-05T13:39:08.860Z,61.41
2019-02-05T13:41:40.440Z,60.88
2019-02-05T13:44:12.108Z,60.76
2019-02-05T13:46:43.788Z,60.60
2019-02-05T13:49:15.498Z,61.47
2019-02-05T13:51:47.827Z,62.25
2019-02-05T13:54:19.481Z,62.32
2019-02-05T13:56:51.100Z,63.11
2019-02-05T13:59:22.729Z,63.31
2019-02-05T14:01:54.400Z,63.14
2019-02-05T14:04:26.077Z,62.59
2019-02-05T14:06:57.826Z,62.04
2019-02-05T14:09:29.432Z,62.21
2019-02-05T14:12:01.026Z,62.11
2019-02-05T14:14:32.636Z,62.19
2019-02-05T14:17:04.332Z,63.28
2019-02-05T14:19:36.058Z,63.54
2019-02-05T14:22:07.789Z,62.72
2019-02-05T14:24:39.415Z,62.61
2019-02-05T14:27:10.999Z,63.16
2019-02-05T14:29:42.833Z,63.16
2019-02-05T14:32:14.555Z,64.13
2019-02-05T14:34:46.247Z,63.95
2019-02-05T14:37:17.876Z,64.54
2019-02-05T14:39:50.015Z,64.18
2019-02-05T14:42:22.564Z,63.76
2019-02-05T14:44:54.158Z,63.77
2019-02-05T14:47:25.753Z,63.86
2019-02-05T14:49:57.382Z,64.24
2019-02-05T14:52:29.437Z,64.52
2019-02-05T14:55:01.042Z,64.88
2019-02-05T14:57:33.370Z,64.83
2019-02-05T15:00:08.611Z,63.98
2019-02-05T15:02:40.241Z,64.42
2019-02-05T15:05:12.414Z,63.65
2019-02-05T15:07:44.853Z,63.60
2019-02-05T15:10:19.610Z,63.60
2019-02-05T15:12:52.174Z,63.32
2019-02-05T15:15:27.150Z,63.85
2019-02-05T15:17:59.072Z,63.75
2019-02-05T15:20:38.907Z,63.60
2019-02-05T15:23:10.726Z,63.45
2019-02-05T15:25:42.473Z,63.73
2019-02-05T15:28:15.636Z,63.99
2019-02-05T15:30:47.405Z,64.10
2019-02-05T15:33:26.233Z,64.08
2019-02-05T15:36:02.414Z,64.13
2019-02-05T15:38:34.380Z,64.03
2019-02-05T15:41:06.062Z,64.20
2019-02-05T15:43:37.935Z,64.30
2019-02-05T15:46:09.560Z,64.25
2019-02-05T15:48:41.361Z,63.76
2019-02-05T15:51:13.241Z,64.05
2019-02-05T15:53:44.848Z,64.25
2019-02-05T15:56:16.554Z,64.66
2019-02-05T15:58:48.179Z,64.97
2019-02-05T16:01:20.346Z,64.75
2019-02-05T16:03:52.095Z,64.52
2019-02-05T16:06:24.360Z,64.66
2019-02-05T16:08:55.962Z,64.49
2019-02-05T16:11:27.562Z,64.54
2019-02-05T16:13:59.296Z,64.83
2019-02-05T16:16:31.369Z,64.61
2019-02-05T16:19:02.997Z,64.43
2019-02-05T16:21:34.688Z,64.86
2019-02-05T16:24:06.341Z,64.50
2019-02-05T16:26:37.911Z,64.40
2019-02-05T16:29:10.784Z,64.05
2019-02-05T16:31:42.459Z,64.03
2019-02-05T16:34:14.265Z,63.88
2019-02-05T16:36:48.615Z,64.03
2019-02-05T16:39:19.420Z,63.64
2019-02-05T16:41:51.060Z,63.62
2019-02-05T16:44:22.727Z,63.90
2019-02-05T16:46:54.823Z,63.56
2019-02-05T16:49:26.512Z,63.31
2019-02-05T16:51:58.157Z,63.81
2019-02-05T16:54:29.861Z,63.81
2019-02-05T16:57:01.556Z,63.76
2019-02-05T16:59:33.275Z,63.91
2019-02-05T17:02:05.340Z,63.27
2019-02-05T17:04:38.171Z,63.91
2019-02-05T17:07:09.883Z,64.15
2019-02-05T17:09:41.496Z,63.53
2019-02-05T17:12:13.311Z,63.29
2019-02-05T17:14:45.012Z,63.55
2019-02-05T17:17:16.758Z,63.89
2019-02-05T17:19:48.368Z,63.60
2019-02-05T17:22:19.958Z,63.56
2019-02-05T17:24:52.970Z,64.03
2019-02-05T17:27:25.628Z,63.77
2019-02-05T17:29:57.661Z,63.83
2019-02-05T17:32:39.673Z,63.48
2019-02-05T17:35:03.051Z,63.24
2019-02-05T17:37:35.225Z,63.50
2019-02-05T17:40:11.874Z,62.78
2019-02-05T17:42:45.328Z,62.70
2019-02-05T17:45:32.986Z,63.26
2019-02-05T17:48:10.200Z,63.26
2019-02-05T17:50:42.329Z,63.38
2019-02-05T17:53:14.058Z,63.66
2019-02-05T17:55:45.774Z,63.28
2019-02-05T17:58:17.433Z,63.76
2019-02-05T18:00:50.993Z,63.83
2019-02-05T18:03:23.033Z,63.28
2019-02-05T18:05:55.474Z,63.64
2019-02-05T18:08:27.048Z,64.29
2019-02-05T18:10:58.692Z,64.06
2019-02-05T18:13:30.283Z,64.39
2019-02-05T18:16:02.820Z,63.66
2019-02-05T18:18:34.412Z,64.24
2019-02-05T18:21:06.481Z,64.13
2019-02-05T18:23:38.231Z,64.33
2019-02-05T18:26:10.041Z,64.71
2019-02-05T18:28:41.943Z,64.86
2019-02-05T18:31:13.533Z,64.98
2019-02-05T18:33:45.198Z,64.20
2019-02-05T18:36:16.912Z,64.03
2019-02-05T18:38:48.570Z,64.31
2019-02-05T18:41:20.498Z,64.21
2019-02-05T18:43:52.163Z,64.81
2019-02-05T18:46:23.761Z,64.63
2019-02-05T18:49:04.703Z,64.40
2019-02-05T18:51:28.855Z,64.15
2019-02-05T18:54:00.520Z,64.44
2019-02-05T18:56:32.126Z,64.16
2019-02-05T18:59:03.705Z,64.16
2019-02-05T19:01:35.435Z,63.95
2019-02-05T19:04:07.105Z,63.78
2019-02-05T19:06:40.508Z,64.13
2019-02-05T19:09:13.650Z,64.03
2019-02-05T19:11:45.258Z,63.93
2019-02-05T19:14:16.982Z,63.91
2019-02-05T19:16:49.770Z,64.64
2019-02-05T19:19:21.477Z,64.52
2019-02-05T19:21:53.584Z,64.60
2019-02-05T19:24:32.953Z,64.25
2019-02-05T19:27:04.554Z,64.96
2019-02-05T19:29:36.866Z,64.66
2019-02-05T19:32:08.679Z,63.93
2019-02-05T19:34:40.340Z,64.08
2019-02-05T19:37:12.029Z,64.83
2019-02-05T19:39:43.644Z,65.00
2019-02-05T19:42:15.653Z,64.53
2019-02-05T19:44:48.911Z,64.70
2019-02-05T19:47:22.239Z,64.85
2019-02-05T19:49:54.096Z,64.73
2019-02-05T19:52:27.676Z,64.98
2019-02-05T19:54:59.028Z,65.35
2019-02-05T19:57:30.602Z,65.32
2019-02-05T20:00:02.574Z,64.80
2019-02-05T20:02:35.737Z,64.53
2019-02-05T20:05:10.696Z,64.42
2019-02-05T20:07:42.752Z,64.82
2019-02-05T20:10:17.297Z,65.18
2019-02-05T20:12:48.902Z,64.99
2019-02-05T20:15:20.622Z,65.41
2019-02-05T20:17:52.212Z,64.90
2019-02-05T20:20:23.978Z,64.39
2019-02-05T20:22:55.963Z,64.77
2019-02-05T20:25:27.590Z,64.73
2019-02-05T20:27:59.172Z,64.95
2019-02-05T20:30:30.765Z,64.86
2019-02-05T20:33:02.361Z,64.95
2019-02-05T20:35:34.325Z,65.68
2019-02-05T20:38:06.489Z,65.64
2019-02-05T20:40:38.427Z,65.38
2019-02-05T20:43:10.484Z,65.01
2019-02-05T20:45:42.325Z,65.40
2019-02-05T20:48:13.930Z,64.96
2019-02-05T20:50:45.632Z,65.44
2019-02-05T20:53:17.250Z,65.76
2019-02-05T20:55:48.876Z,65.63
2019-02-05T20:58:20.593Z,65.29
2019-02-05T21:00:52.187Z,65.86
2019-02-05T21:03:24.056Z,65.94
2019-02-05T21:05:56.668Z,66.09
2019-02-05T21:08:28.435Z,65.96
2019-02-05T21:11:00.140Z,66.02
2019-02-05T21:13:31.831Z,65.99
2019-02-05T21:16:03.794Z,65.88
2019-02-05T21:18:35.371Z,65.90
2019-02-05T21:21:06.971Z,65.61
2019-02-05T21:23:38.634Z,66.19
2019-02-05T21:26:10.220Z,65.69
2019-02-05T21:28:41.815Z,65.35
2019-02-05T21:31:13.497Z,65.58
2019-02-05T21:33:45.098Z,65.67
2019-02-05T21:36:16.765Z,65.23
2019-02-05T21:38:48.521Z,65.11
2019-02-05T21:41:20.185Z,64.96
2019-02-05T21:43:51.989Z,64.70
2019-02-05T21:46:23.772Z,64.79
2019-02-05T21:48:55.404Z,65.68
2019-02-05T21:51:26.975Z,66.06
2019-02-05T21:53:59.204Z,65.74
2019-02-05T21:56:31.074Z,65.75
2019-02-05T21:59:02.738Z,66.29
2019-02-05T22:01:34.427Z,66.34
2019-02-05T22:04:06.173Z,66.60
2019-02-05T22:06:37.872Z,66.59
2019-02-05T22:09:09.509Z,66.41
2019-02-05T22:11:41.300Z,66.95
2019-02-05T22:14:13.827Z,66.62
2019-02-05T22:16:45.438Z,66.05
2019-02-05T22:19:17.316Z,66.11
2019-02-05T22:21:48.983Z,66.12
2019-02-05T22:24:20.551Z,65.90
2019-02-05T22:26:52.282Z,65.56
2019-02-05T22:29:23.888Z,65.31
2019-02-05T22:31:55.721Z,65.47
2019-02-05T22:34:38.571Z,65.49
2019-02-05T22:37:03.628Z,65.61
2019-02-05T22:39:34.513Z,65.12
2019-02-05T22:42:06.453Z,64.85
2019-02-05T22:44:38.050Z,64.55
2019-02-05T22:47:09.763Z,65.24
2019-02-05T22:49:41.357Z,65.22
2019-02-05T22:52:12.979Z,65.40
2019-02-05T22:54:45.636Z,65.30
2019-02-05T22:57:17.440Z,65.57
2019-02-05T22:59:49.038Z,65.81
2019-02-05T23:02:20.628Z,66.00
2019-02-05T23:04:57.109Z,65.72
2019-02-05T23:07:28.768Z,65.87
2019-02-05T23:10:14.470Z,65.54
2019-02-05T23:12:46.772Z,65.47
2019-02-05T23:15:20.143Z,66.02
2019-02-05T23:17:51.721Z,66.41
2019-02-05T23:20:23.505Z,66.38
2019-02-05T23:22:57.187Z,66.44
2019-02-05T23:25:29.069Z,66.03
2019-02-05T23:28:01.157Z,66.25
2019-02-05T23:30:32.780Z,66.56
2019-02-05T23:33:04.593Z,66.06
2019-02-05T23:35:36.197Z,65.65
2019-02-05T23:38:07.799Z,66.05
2019-02-05T23:40:39.486Z,66.48
2019-02-05T23:43:11.321Z,66.16
2019-02-05T23:45:43.333Z,66.16
2019-02-05T23:48:14.917Z,66.92
2019-02-05T23:50:46.651Z,66.90
2019-02-05T23:53:18.336Z,66.95
2019-02-05T23:55:49.998Z,66.65
2019-02-05T23:58:22.126Z,66.98
